Currently N/A°F in Perris, California, USA
N/A°F Alert
N/A°F / N/A°F
N/A
N/A
Friday, December 14, 2018 3:52 PM PST

Perris, California Weather Summary
Last 36 Hours

Temperature Winds Hourly Humidity Dewpoint
Time Report Norm Report Norm Max Gusts Precip. Rpt. Norm Rpt. Norm Pressure
1Sun 01:27 AM  51.1°F  49°F  calm  1 mph  none  0.00"  85%  66%  47°F  38°F  N/A
3Sun 01:03 AM  51.1°F  49°F  calm  1 mph  none  ----  85%  65%  47°F  38°F  N/A
Sun 01:00 AM  51.1°F  49°F  calm  2 mph  none  0.00"  85%  65%  47°F  38°F  N/A
2Sun 12:09 AM  52.1°F  50°F  calm  1 mph  none  ----  84%  65%  47°F  38°F  N/A
Sun 12:00 AM  52.0°F  50°F  calm  2 mph  7 mph  0.00"  84%  65%  47°F  39°F  N/A
Sat 11:00 PM  55.8°F  51°F  4 mph NE  2 mph  6 mph  0.00"  73%  63%  47°F  39°F  N/A
Sat 10:00 PM  54.4°F  53°F  calm  2 mph  6 mph  0.00"  79%  61%  48°F  39°F  N/A
Sat 09:00 PM  57.7°F  54°F  4 mph E  2 mph  6 mph  0.00"  72%  59%  48°F  40°F  N/A
Sat 08:00 PM  57.6°F  55°F  3 mph SW  2 mph  8 mph  0.00"  74%  58%  49°F  40°F  N/A
Sat 07:00 PM  58.5°F  56°F  2 mph NW  3 mph  8 mph  0.00"  71%  54%  49°F  39°F  N/A
Sat 06:00 PM  60.0°F  58°F  1 mph N  3 mph  6 mph  0.00"  68%  50%  49°F  39°F  N/A
Sat 05:00 PM  63.5°F  60°F  calm  3 mph  5 mph  0.00"  54%  46%  46°F  38°F  N/A
Sat 04:00 PM  67.7°F  63°F  2 mph NW  4 mph  6 mph  0.00"  51%  40%  48°F  38°F  N/A
Sat 03:00 PM  70.2°F  65°F  2 mph W  4 mph  7 mph  0.00"  47%  37%  48°F  37°F  N/A
Sat 02:00 PM  68.9°F  65°F  2 mph W  4 mph  6 mph  0.00"  49%  37%  48°F  37°F  N/A
Sat 01:00 PM  69.8°F  65°F  1 mph SW  4 mph  6 mph  0.00"  49%  37%  49°F  37°F  N/A
Sat 12:00 PM  66.4°F  64°F  calm  3 mph  5 mph  0.00"  61%  40%  52°F  38°F  N/A
Sat 11:00 AM  64.8°F  61°F  calm  3 mph  5 mph  0.00"  68%  45%  53°F  39°F  N/A
Sat 10:00 AM  59.0°F  57°F  2 mph S  2 mph  4 mph  0.00"  82%  54%  53°F  40°F  N/A
Sat 09:00 AM  51.9°F  52°F  calm  2 mph  none  0.00"  96%  64%  51°F  40°F  N/A
Sat 08:00 AM  44.4°F  47°F  calm  1 mph  1 mph  0.00"  98%  71%  44°F  38°F  N/A
Sat 07:00 AM  43.3°F  45°F  calm  1 mph  3 mph  0.00"  98%  72%  43°F  37°F  N/A
Sat 06:00 AM  43.5°F  46°F  calm  1 mph  5 mph  0.00"  98%  71%  43°F  37°F  N/A
Sat 05:00 AM  44.7°F  47°F  calm  1 mph  3 mph  0.00"  97%  69%  44°F  37°F  N/A
Sat 04:00 AM  44.7°F  47°F  calm  2 mph  3 mph  0.00"  97%  69%  44°F  37°F  N/A
Sat 03:00 AM  44.7°F  48°F  2 mph SE  1 mph  5 mph  0.00"  95%  68%  43°F  37°F  N/A
Sat 02:00 AM  48.8°F  49°F  calm  1 mph  3 mph  0.00"  89%  66%  45°F  38°F  N/A
Sat 01:00 AM  49.1°F  50°F  calm  2 mph  4 mph  0.00"  88%  64%  46°F  38°F  N/A
Sat 12:00 AM  49.5°F  51°F  2 mph NE  2 mph  5 mph  0.00"  90%  64%  47°F  38°F  N/A
Fri 11:00 PM  49.5°F  52°F  calm  2 mph  3 mph  0.00"  91%  62%  47°F  39°F  N/A
Fri 10:00 PM  50.8°F  53°F  2 mph NE  2 mph  3 mph  0.00"  86%  60%  47°F  39°F  N/A
Fri 09:00 PM  52.3°F  54°F  calm  2 mph  3 mph  0.00"  83%  58%  47°F  39°F  N/A
Fri 08:00 PM  54.3°F  55°F  2 mph NE  2 mph  7 mph  0.00"  80%  56%  48°F  40°F  N/A
Fri 07:00 PM  55.3°F  57°F  4 mph NE  3 mph  10 mph  0.00"  77%  52%  48°F  39°F  N/A
Fri 06:00 PM  56.8°F  58°F  4 mph W  3 mph  10 mph  0.00"  73%  50%  48°F  39°F  N/A
Fri 05:00 PM  58.5°F  60°F  2 mph SE  3 mph  10 mph  0.00"  69%  45%  48°F  38°F  N/A
Fri 04:00 PM  60.9°F  63°F  7 mph NW  4 mph  14 mph  0.00"  63%  40%  48°F  37°F  N/A
Fri 03:00 PM  62.6°F  65°F  7 mph NW  4 mph  10 mph  0.00"  63%  37%  50°F  37°F  N/A
Fri 02:00 PM  62.3°F  66°F  5 mph SW  4 mph  13 mph  0.00"  61%  36%  48°F  37°F  N/A

  1. Current weather data. No green row appears if the current weather data is also the high or low for the current day.
  2. High temperature for the current day.
  3. Low temperature for the current day.

The Perris, California weather pages are a service of WeatherCurrents. Perris is located in Southern California's Inland Empire, south of Riverside and north of Sun City, along the Interstate 215 freeway.
Copyright ©Fri Dec 14 15:52:34 PST 2018  WeatherCurrents. All rights reserved. - Submit questions and comments - Privacy Policy

This page automatically refreshes every 10 minutes.